sensor_id;sensor_type;location;lat;lon;timestamp;P1;durP1;ratioP1;P2;durP2;ratioP2
325;SDS011;150;52.352;14.058;2022-07-19T00:01:07;6.25;;;4.25;;
325;SDS011;150;52.352;14.058;2022-07-19T00:03:34;7.45;;;4.38;;
325;SDS011;150;52.352;14.058;2022-07-19T00:06:00;6.30;;;4.30;;
325;SDS011;150;52.352;14.058;2022-07-19T00:08:27;7.60;;;3.88;;
325;SDS011;150;52.352;14.058;2022-07-19T00:10:54;8.15;;;3.80;;
325;SDS011;150;52.352;14.058;2022-07-19T00:13:20;4.97;;;3.90;;
325;SDS011;150;52.352;14.058;2022-07-19T00:15:48;4.88;;;3.85;;
325;SDS011;150;52.352;14.058;2022-07-19T00:18:15;4.97;;;3.55;;
325;SDS011;150;52.352;14.058;2022-07-19T00:20:42;7.10;;;4.33;;
325;SDS011;150;52.352;14.058;2022-07-19T00:23:08;7.03;;;4.22;;
325;SDS011;150;52.352;14.058;2022-07-19T00:25:35;6.32;;;4.20;;
325;SDS011;150;52.352;14.058;2022-07-19T00:28:02;6.53;;;4.20;;
325;SDS011;150;52.352;14.058;2022-07-19T00:30:29;6.20;;;5.00;;
325;SDS011;150;52.352;14.058;2022-07-19T00:32:57;7.13;;;4.50;;
325;SDS011;150;52.352;14.058;2022-07-19T00:35:23;6.50;;;4.18;;
325;SDS011;150;52.352;14.058;2022-07-19T00:37:50;6.15;;;4.47;;
325;SDS011;150;52.352;14.058;2022-07-19T00:40:20;6.38;;;4.50;;
325;SDS011;150;52.352;14.058;2022-07-19T00:42:47;7.55;;;5.00;;
325;SDS011;150;52.352;14.058;2022-07-19T00:45:14;7.75;;;6.28;;
325;SDS011;150;52.352;14.058;2022-07-19T00:47:41;7.35;;;5.13;;
325;SDS011;150;52.352;14.058;2022-07-19T00:50:10;5.78;;;4.30;;
325;SDS011;150;52.352;14.058;2022-07-19T00:52:39;6.28;;;4.75;;
325;SDS011;150;52.352;14.058;2022-07-19T00:55:07;5.80;;;4.65;;
325;SDS011;150;52.352;14.058;2022-07-19T00:57:35;6.80;;;4.80;;
325;SDS011;150;52.352;14.058;2022-07-19T01:00:03;6.75;;;4.20;;
325;SDS011;150;52.352;14.058;2022-07-19T01:02:32;8.98;;;4.95;;
325;SDS011;150;52.352;14.058;2022-07-19T01:05:00;6.53;;;4.63;;
325;SDS011;150;52.352;14.058;2022-07-19T01:07:28;7.75;;;5.38;;
325;SDS011;150;52.352;14.058;2022-07-19T01:09:55;5.63;;;4.80;;
325;SDS011;150;52.352;14.058;2022-07-19T01:12:21;6.38;;;4.10;;
325;SDS011;150;52.352;14.058;2022-07-19T01:14:48;6.93;;;5.13;;
325;SDS011;150;52.352;14.058;2022-07-19T01:17:15;5.33;;;4.20;;
325;SDS011;150;52.352;14.058;2022-07-19T01:19:42;6.63;;;4.43;;
325;SDS011;150;52.352;14.058;2022-07-19T01:22:10;5.10;;;4.20;;
325;SDS011;150;52.352;14.058;2022-07-19T01:24:37;7.63;;;4.43;;
325;SDS011;150;52.352;14.058;2022-07-19T01:27:03;5.13;;;4.27;;
325;SDS011;150;52.352;14.058;2022-07-19T01:29:31;6.00;;;4.40;;
325;SDS011;150;52.352;14.058;2022-07-19T01:31:57;5.43;;;4.25;;
325;SDS011;150;52.352;14.058;2022-07-19T01:34:24;7.43;;;4.70;;
325;SDS011;150;52.352;14.058;2022-07-19T01:36:51;5.30;;;4.32;;
325;SDS011;150;52.352;14.058;2022-07-19T01:39:19;6.00;;;4.57;;
325;SDS011;150;52.352;14.058;2022-07-19T01:41:45;7.22;;;4.10;;
325;SDS011;150;52.352;14.058;2022-07-19T01:44:12;5.40;;;4.50;;
325;SDS011;150;52.352;14.058;2022-07-19T01:46:39;5.30;;;4.45;;
325;SDS011;150;52.352;14.058;2022-07-19T01:49:06;7.20;;;4.55;;
325;SDS011;150;52.352;14.058;2022-07-19T01:51:33;7.88;;;4.47;;
325;SDS011;150;52.352;14.058;2022-07-19T01:53:59;7.53;;;4.97;;
325;SDS011;150;52.352;14.058;2022-07-19T01:56:27;5.80;;;3.90;;
325;SDS011;150;52.352;14.058;2022-07-19T01:58:54;5.55;;;4.35;;
325;SDS011;150;52.352;14.058;2022-07-19T02:01:21;6.65;;;4.70;;
325;SDS011;150;52.352;14.058;2022-07-19T02:03:47;6.70;;;4.32;;
325;SDS011;150;52.352;14.058;2022-07-19T02:06:14;5.65;;;4.10;;
325;SDS011;150;52.352;14.058;2022-07-19T02:08:41;4.80;;;3.83;;
325;SDS011;150;52.352;14.058;2022-07-19T02:11:07;7.10;;;4.80;;
325;SDS011;150;52.352;14.058;2022-07-19T02:13:49;5.40;;;4.60;;
325;SDS011;150;52.352;14.058;2022-07-19T02:16:16;6.32;;;4.30;;
325;SDS011;150;52.352;14.058;2022-07-19T02:18:43;8.02;;;4.50;;
325;SDS011;150;52.352;14.058;2022-07-19T02:21:10;7.33;;;4.60;;
325;SDS011;150;52.352;14.058;2022-07-19T02:23:36;6.80;;;4.20;;
325;SDS011;150;52.352;14.058;2022-07-19T02:26:03;7.30;;;4.60;;
325;SDS011;150;52.352;14.058;2022-07-19T02:28:29;5.47;;;4.25;;
325;SDS011;150;52.352;14.058;2022-07-19T02:30:57;5.35;;;3.78;;
325;SDS011;150;52.352;14.058;2022-07-19T02:33:24;5.97;;;4.63;;
325;SDS011;150;52.352;14.058;2022-07-19T02:35:51;6.90;;;4.30;;
325;SDS011;150;52.352;14.058;2022-07-19T02:38:17;5.50;;;4.13;;
325;SDS011;150;52.352;14.058;2022-07-19T02:40:44;6.18;;;4.70;;
325;SDS011;150;52.352;14.058;2022-07-19T02:43:11;6.63;;;4.20;;
325;SDS011;150;52.352;14.058;2022-07-19T02:45:37;8.30;;;4.45;;
325;SDS011;150;52.352;14.058;2022-07-19T02:48:05;6.20;;;4.60;;
325;SDS011;150;52.352;14.058;2022-07-19T02:50:32;6.32;;;4.45;;
325;SDS011;150;52.352;14.058;2022-07-19T02:52:59;6.25;;;5.00;;
325;SDS011;150;52.352;14.058;2022-07-19T02:55:26;6.57;;;4.27;;
325;SDS011;150;52.352;14.058;2022-07-19T02:57:52;5.53;;;4.68;;
325;SDS011;150;52.352;14.058;2022-07-19T03:00:19;5.75;;;4.13;;
325;SDS011;150;52.352;14.058;2022-07-19T03:02:46;5.70;;;4.13;;
325;SDS011;150;52.352;14.058;2022-07-19T03:05:14;6.32;;;4.25;;
325;SDS011;150;52.352;14.058;2022-07-19T03:07:41;5.70;;;4.50;;
325;SDS011;150;52.352;14.058;2022-07-19T03:10:07;7.97;;;4.28;;
325;SDS011;150;52.352;14.058;2022-07-19T03:12:35;4.72;;;3.92;;
325;SDS011;150;52.352;14.058;2022-07-19T03:15:02;5.07;;;4.25;;
325;SDS011;150;52.352;14.058;2022-07-19T03:17:30;6.95;;;4.32;;
325;SDS011;150;52.352;14.058;2022-07-19T03:19:56;5.75;;;4.07;;
325;SDS011;150;52.352;14.058;2022-07-19T03:22:24;6.97;;;4.75;;
325;SDS011;150;52.352;14.058;2022-07-19T03:24:51;5.53;;;4.30;;
325;SDS011;150;52.352;14.058;2022-07-19T03:27:18;6.47;;;4.97;;
325;SDS011;150;52.352;14.058;2022-07-19T03:29:44;6.50;;;4.35;;
325;SDS011;150;52.352;14.058;2022-07-19T03:32:11;5.43;;;3.78;;
325;SDS011;150;52.352;14.058;2022-07-19T03:34:38;7.60;;;4.70;;
325;SDS011;150;52.352;14.058;2022-07-19T03:37:04;7.57;;;4.63;;
325;SDS011;150;52.352;14.058;2022-07-19T03:39:32;8.33;;;4.77;;
325;SDS011;150;52.352;14.058;2022-07-19T03:41:59;6.60;;;4.45;;
325;SDS011;150;52.352;14.058;2022-07-19T03:44:26;4.80;;;3.93;;
325;SDS011;150;52.352;14.058;2022-07-19T03:46:53;7.80;;;4.35;;
325;SDS011;150;52.352;14.058;2022-07-19T03:49:19;7.35;;;4.70;;
325;SDS011;150;52.352;14.058;2022-07-19T03:51:46;7.23;;;5.13;;
325;SDS011;150;52.352;14.058;2022-07-19T03:54:12;7.40;;;5.40;;
325;SDS011;150;52.352;14.058;2022-07-19T03:56:40;6.07;;;4.20;;
325;SDS011;150;52.352;14.058;2022-07-19T03:59:07;7.45;;;4.78;;
325;SDS011;150;52.352;14.058;2022-07-19T04:01:34;6.60;;;4.22;;
325;SDS011;150;52.352;14.058;2022-07-19T04:04:02;4.97;;;4.00;;
325;SDS011;150;52.352;14.058;2022-07-19T04:06:29;6.10;;;4.68;;
325;SDS011;150;52.352;14.058;2022-07-19T04:08:56;8.00;;;5.25;;
325;SDS011;150;52.352;14.058;2022-07-19T04:11:23;7.60;;;4.93;;
325;SDS011;150;52.352;14.058;2022-07-19T04:13:50;7.10;;;4.75;;
325;SDS011;150;52.352;14.058;2022-07-19T04:16:17;8.07;;;5.00;;
325;SDS011;150;52.352;14.058;2022-07-19T04:18:44;6.40;;;4.67;;
325;SDS011;150;52.352;14.058;2022-07-19T04:21:10;6.75;;;4.70;;
325;SDS011;150;52.352;14.058;2022-07-19T04:23:37;7.55;;;5.30;;
325;SDS011;150;52.352;14.058;2022-07-19T04:26:04;6.88;;;4.47;;
325;SDS011;150;52.352;14.058;2022-07-19T04:28:30;9.52;;;5.10;;
325;SDS011;150;52.352;14.058;2022-07-19T04:30:58;8.03;;;5.40;;
325;SDS011;150;52.352;14.058;2022-07-19T04:33:25;8.43;;;5.50;;
325;SDS011;150;52.352;14.058;2022-07-19T04:35:52;6.97;;;5.63;;
325;SDS011;150;52.352;14.058;2022-07-19T04:38:19;7.72;;;5.18;;
325;SDS011;150;52.352;14.058;2022-07-19T04:40:46;7.15;;;5.60;;
325;SDS011;150;52.352;14.058;2022-07-19T04:43:13;8.05;;;4.60;;
325;SDS011;150;52.352;14.058;2022-07-19T04:45:42;10.10;;;5.05;;
325;SDS011;150;52.352;14.058;2022-07-19T04:48:10;9.25;;;5.25;;
325;SDS011;150;52.352;14.058;2022-07-19T04:50:38;7.78;;;4.70;;
325;SDS011;150;52.352;14.058;2022-07-19T04:53:05;8.95;;;4.95;;
325;SDS011;150;52.352;14.058;2022-07-19T04:55:32;4.55;;;4.25;;
325;SDS011;150;52.352;14.058;2022-07-19T04:57:59;9.77;;;4.75;;
325;SDS011;150;52.352;14.058;2022-07-19T05:00:26;7.65;;;5.15;;
325;SDS011;150;52.352;14.058;2022-07-19T05:02:53;6.13;;;4.97;;
325;SDS011;150;52.352;14.058;2022-07-19T05:05:21;6.15;;;4.22;;
325;SDS011;150;52.352;14.058;2022-07-19T05:07:47;8.15;;;5.45;;
325;SDS011;150;52.352;14.058;2022-07-19T05:10:14;8.20;;;4.30;;
325;SDS011;150;52.352;14.058;2022-07-19T05:12:41;5.82;;;4.10;;
325;SDS011;150;52.352;14.058;2022-07-19T05:15:08;5.22;;;4.20;;
325;SDS011;150;52.352;14.058;2022-07-19T05:17:35;5.25;;;4.00;;
325;SDS011;150;52.352;14.058;2022-07-19T05:20:02;5.82;;;3.60;;
325;SDS011;150;52.352;14.058;2022-07-19T05:22:31;8.02;;;4.80;;
325;SDS011;150;52.352;14.058;2022-07-19T05:24:58;6.50;;;4.63;;
325;SDS011;150;52.352;14.058;2022-07-19T05:27:25;9.40;;;4.95;;
325;SDS011;150;52.352;14.058;2022-07-19T05:29:52;6.55;;;4.32;;
325;SDS011;150;52.352;14.058;2022-07-19T05:32:18;6.63;;;4.43;;
325;SDS011;150;52.352;14.058;2022-07-19T05:34:45;8.18;;;4.38;;
325;SDS011;150;52.352;14.058;2022-07-19T05:37:12;6.90;;;4.47;;
325;SDS011;150;52.352;14.058;2022-07-19T05:39:40;6.60;;;4.25;;
325;SDS011;150;52.352;14.058;2022-07-19T05:42:06;6.78;;;4.50;;
325;SDS011;150;52.352;14.058;2022-07-19T05:44:33;6.83;;;4.47;;
325;SDS011;150;52.352;14.058;2022-07-19T05:46:59;6.05;;;4.25;;
325;SDS011;150;52.352;14.058;2022-07-19T05:49:26;6.25;;;4.07;;
325;SDS011;150;52.352;14.058;2022-07-19T05:51:53;5.50;;;4.00;;
325;SDS011;150;52.352;14.058;2022-07-19T05:54:19;4.25;;;3.60;;
325;SDS011;150;52.352;14.058;2022-07-19T05:56:47;7.22;;;3.85;;
325;SDS011;150;52.352;14.058;2022-07-19T05:59:14;7.90;;;3.95;;
325;SDS011;150;52.352;14.058;2022-07-19T06:01:41;5.70;;;4.35;;
325;SDS011;150;52.352;14.058;2022-07-19T06:04:08;7.20;;;4.53;;
325;SDS011;150;52.352;14.058;2022-07-19T06:06:34;6.93;;;3.60;;
325;SDS011;150;52.352;14.058;2022-07-19T06:09:01;4.78;;;3.33;;
325;SDS011;150;52.352;14.058;2022-07-19T06:11:30;4.72;;;3.60;;
325;SDS011;150;52.352;14.058;2022-07-19T06:14:00;6.97;;;3.25;;
325;SDS011;150;52.352;14.058;2022-07-19T06:16:27;6.55;;;3.50;;
325;SDS011;150;52.352;14.058;2022-07-19T06:18:53;6.20;;;4.30;;
325;SDS011;150;52.352;14.058;2022-07-19T06:21:20;4.45;;;3.55;;
325;SDS011;150;52.352;14.058;2022-07-19T06:23:47;4.90;;;3.65;;
325;SDS011;150;52.352;14.058;2022-07-19T06:26:15;6.10;;;3.30;;
325;SDS011;150;52.352;14.058;2022-07-19T06:28:42;7.57;;;3.78;;
325;SDS011;150;52.352;14.058;2022-07-19T06:31:11;5.30;;;3.10;;
325;SDS011;150;52.352;14.058;2022-07-19T06:33:39;4.20;;;3.03;;
325;SDS011;150;52.352;14.058;2022-07-19T06:36:06;5.20;;;3.30;;
325;SDS011;150;52.352;14.058;2022-07-19T06:38:33;5.70;;;3.20;;
325;SDS011;150;52.352;14.058;2022-07-19T06:41:00;5.03;;;3.80;;
325;SDS011;150;52.352;14.058;2022-07-19T06:43:26;3.70;;;2.70;;
325;SDS011;150;52.352;14.058;2022-07-19T06:45:53;6.18;;;3.10;;
325;SDS011;150;52.352;14.058;2022-07-19T06:48:21;5.97;;;3.00;;
325;SDS011;150;52.352;14.058;2022-07-19T06:50:48;7.70;;;3.20;;
325;SDS011;150;52.352;14.058;2022-07-19T06:53:15;7.80;;;4.45;;
325;SDS011;150;52.352;14.058;2022-07-19T06:55:42;7.90;;;6.03;;
325;SDS011;150;52.352;14.058;2022-07-19T06:58:08;4.82;;;2.35;;
325;SDS011;150;52.352;14.058;2022-07-19T07:00:35;3.20;;;2.30;;
325;SDS011;150;52.352;14.058;2022-07-19T07:03:02;3.25;;;1.80;;
325;SDS011;150;52.352;14.058;2022-07-19T07:05:30;3.60;;;2.60;;
325;SDS011;150;52.352;14.058;2022-07-19T07:07:57;4.77;;;4.03;;
325;SDS011;150;52.352;14.058;2022-07-19T07:10:24;4.82;;;2.90;;
325;SDS011;150;52.352;14.058;2022-07-19T07:12:51;3.17;;;2.10;;
325;SDS011;150;52.352;14.058;2022-07-19T07:15:17;3.10;;;2.20;;
325;SDS011;150;52.352;14.058;2022-07-19T07:17:44;3.50;;;1.85;;
325;SDS011;150;52.352;14.058;2022-07-19T07:20:11;2.97;;;1.90;;
325;SDS011;150;52.352;14.058;2022-07-19T07:22:39;4.35;;;2.33;;
325;SDS011;150;52.352;14.058;2022-07-19T07:25:06;4.97;;;4.70;;
325;SDS011;150;52.352;14.058;2022-07-19T07:27:33;3.55;;;2.08;;
325;SDS011;150;52.352;14.058;2022-07-19T07:30:00;4.20;;;2.30;;
325;SDS011;150;52.352;14.058;2022-07-19T07:32:26;2.85;;;1.80;;
325;SDS011;150;52.352;14.058;2022-07-19T07:34:53;2.30;;;1.50;;
325;SDS011;150;52.352;14.058;2022-07-19T07:37:20;3.40;;;2.47;;
325;SDS011;150;52.352;14.058;2022-07-19T07:39:48;3.50;;;1.50;;
325;SDS011;150;52.352;14.058;2022-07-19T07:42:15;3.22;;;1.80;;
325;SDS011;150;52.352;14.058;2022-07-19T07:44:42;2.90;;;1.45;;
325;SDS011;150;52.352;14.058;2022-07-19T07:47:08;4.63;;;1.67;;
325;SDS011;150;52.352;14.058;2022-07-19T07:49:35;5.57;;;2.17;;
325;SDS011;150;52.352;14.058;2022-07-19T07:52:02;2.53;;;1.85;;
325;SDS011;150;52.352;14.058;2022-07-19T07:54:29;4.35;;;1.77;;
325;SDS011;150;52.352;14.058;2022-07-19T07:56:57;4.47;;;1.92;;
325;SDS011;150;52.352;14.058;2022-07-19T07:59:23;2.90;;;1.90;;
325;SDS011;150;52.352;14.058;2022-07-19T08:01:50;4.20;;;2.10;;
325;SDS011;150;52.352;14.058;2022-07-19T08:04:17;3.70;;;1.88;;
325;SDS011;150;52.352;14.058;2022-07-19T08:06:43;2.60;;;1.95;;
325;SDS011;150;52.352;14.058;2022-07-19T08:09:10;4.10;;;1.80;;
325;SDS011;150;52.352;14.058;2022-07-19T08:11:37;3.00;;;2.10;;
325;SDS011;150;52.352;14.058;2022-07-19T08:14:05;3.30;;;1.70;;
325;SDS011;150;52.352;14.058;2022-07-19T08:16:32;5.60;;;2.10;;
325;SDS011;150;52.352;14.058;2022-07-19T08:18:58;3.00;;;1.67;;
325;SDS011;150;52.352;14.058;2022-07-19T08:21:25;8.80;;;2.97;;
325;SDS011;150;52.352;14.058;2022-07-19T08:23:52;3.60;;;2.20;;
325;SDS011;150;52.352;14.058;2022-07-19T08:26:18;4.70;;;1.97;;
325;SDS011;150;52.352;14.058;2022-07-19T08:28:45;4.28;;;2.90;;
325;SDS011;150;52.352;14.058;2022-07-19T08:31:14;3.20;;;2.42;;
325;SDS011;150;52.352;14.058;2022-07-19T08:33:41;5.40;;;2.20;;
325;SDS011;150;52.352;14.058;2022-07-19T08:36:08;2.90;;;1.80;;
325;SDS011;150;52.352;14.058;2022-07-19T08:38:35;2.55;;;1.70;;
325;SDS011;150;52.352;14.058;2022-07-19T08:41:03;2.97;;;2.00;;
325;SDS011;150;52.352;14.058;2022-07-19T08:43:31;5.07;;;2.30;;
325;SDS011;150;52.352;14.058;2022-07-19T08:45:58;3.90;;;3.33;;
325;SDS011;150;52.352;14.058;2022-07-19T08:48:29;4.60;;;2.90;;
325;SDS011;150;52.352;14.058;2022-07-19T08:50:59;4.28;;;2.00;;
325;SDS011;150;52.352;14.058;2022-07-19T08:53:28;5.00;;;1.65;;
325;SDS011;150;52.352;14.058;2022-07-19T08:55:56;4.45;;;1.88;;
325;SDS011;150;52.352;14.058;2022-07-19T08:58:23;3.10;;;1.85;;
325;SDS011;150;52.352;14.058;2022-07-19T09:00:49;4.25;;;1.90;;
325;SDS011;150;52.352;14.058;2022-07-19T09:03:16;2.90;;;1.90;;
325;SDS011;150;52.352;14.058;2022-07-19T09:05:44;2.80;;;2.00;;
325;SDS011;150;52.352;14.058;2022-07-19T09:08:13;6.18;;;1.98;;
325;SDS011;150;52.352;14.058;2022-07-19T09:10:42;4.90;;;1.88;;
325;SDS011;150;52.352;14.058;2022-07-19T09:13:29;3.58;;;2.00;;
325;SDS011;150;52.352;14.058;2022-07-19T09:15:57;5.35;;;2.58;;
325;SDS011;150;52.352;14.058;2022-07-19T09:18:24;5.25;;;3.85;;
325;SDS011;150;52.352;14.058;2022-07-19T09:20:55;2.72;;;2.15;;
325;SDS011;150;52.352;14.058;2022-07-19T09:23:22;3.17;;;2.20;;
325;SDS011;150;52.352;14.058;2022-07-19T09:25:50;2.75;;;1.73;;
325;SDS011;150;52.352;14.058;2022-07-19T09:28:18;4.07;;;1.90;;
325;SDS011;150;52.352;14.058;2022-07-19T09:30:46;5.03;;;2.00;;
325;SDS011;150;52.352;14.058;2022-07-19T09:33:14;2.30;;;1.60;;
325;SDS011;150;52.352;14.058;2022-07-19T09:35:43;3.30;;;2.08;;
325;SDS011;150;52.352;14.058;2022-07-19T09:38:22;2.67;;;1.70;;
325;SDS011;150;52.352;14.058;2022-07-19T09:40:51;3.50;;;1.63;;
325;SDS011;150;52.352;14.058;2022-07-19T09:43:20;4.13;;;1.90;;
325;SDS011;150;52.352;14.058;2022-07-19T09:45:50;3.65;;;2.30;;
325;SDS011;150;52.352;14.058;2022-07-19T09:48:17;4.00;;;1.70;;
325;SDS011;150;52.352;14.058;2022-07-19T09:50:45;3.70;;;2.20;;
325;SDS011;150;52.352;14.058;2022-07-19T09:53:13;3.75;;;2.08;;
325;SDS011;150;52.352;14.058;2022-07-19T09:55:42;3.45;;;2.10;;
325;SDS011;150;52.352;14.058;2022-07-19T09:58:09;2.72;;;1.85;;
325;SDS011;150;52.352;14.058;2022-07-19T10:00:37;3.10;;;2.10;;
325;SDS011;150;52.352;14.058;2022-07-19T10:03:04;5.32;;;4.35;;
325;SDS011;150;52.352;14.058;2022-07-19T10:05:33;6.60;;;6.20;;
325;SDS011;150;52.352;14.058;2022-07-19T10:08:00;2.85;;;1.95;;
325;SDS011;150;52.352;14.058;2022-07-19T10:10:27;5.27;;;2.20;;
325;SDS011;150;52.352;14.058;2022-07-19T10:12:57;2.95;;;2.17;;
325;SDS011;150;52.352;14.058;2022-07-19T10:15:24;6.27;;;2.50;;
325;SDS011;150;52.352;14.058;2022-07-19T10:17:56;3.33;;;2.33;;
325;SDS011;150;52.352;14.058;2022-07-19T10:20:29;4.72;;;2.13;;
325;SDS011;150;52.352;14.058;2022-07-19T10:22:57;3.15;;;2.30;;
325;SDS011;150;52.352;14.058;2022-07-19T10:25:25;3.70;;;2.03;;
325;SDS011;150;52.352;14.058;2022-07-19T10:28:05;3.35;;;2.13;;
325;SDS011;150;52.352;14.058;2022-07-19T10:30:52;5.10;;;3.80;;
325;SDS011;150;52.352;14.058;2022-07-19T10:33:26;3.23;;;2.23;;
325;SDS011;150;52.352;14.058;2022-07-19T10:39:20;4.07;;;1.85;;
325;SDS011;150;52.352;14.058;2022-07-19T10:50:24;4.15;;;2.67;;
325;SDS011;150;52.352;14.058;2022-07-19T10:56:21;3.22;;;1.90;;
325;SDS011;150;52.352;14.058;2022-07-19T10:58:50;3.20;;;2.00;;
325;SDS011;150;52.352;14.058;2022-07-19T11:01:19;5.10;;;1.90;;
325;SDS011;150;52.352;14.058;2022-07-19T11:03:48;4.63;;;2.10;;
325;SDS011;150;52.352;14.058;2022-07-19T11:06:19;4.10;;;2.55;;
325;SDS011;150;52.352;14.058;2022-07-19T11:08:47;3.83;;;2.53;;
325;SDS011;150;52.352;14.058;2022-07-19T11:11:18;4.47;;;2.30;;
325;SDS011;150;52.352;14.058;2022-07-19T11:13:45;4.03;;;2.47;;
325;SDS011;150;52.352;14.058;2022-07-19T11:16:14;2.80;;;2.15;;
325;SDS011;150;52.352;14.058;2022-07-19T11:18:42;4.00;;;2.30;;
325;SDS011;150;52.352;14.058;2022-07-19T11:21:10;2.22;;;1.50;;
325;SDS011;150;52.352;14.058;2022-07-19T11:23:38;3.80;;;2.10;;
325;SDS011;150;52.352;14.058;2022-07-19T11:26:06;3.08;;;1.90;;
325;SDS011;150;52.352;14.058;2022-07-19T11:28:36;4.53;;;2.20;;
325;SDS011;150;52.352;14.058;2022-07-19T11:31:10;4.30;;;2.17;;
325;SDS011;150;52.352;14.058;2022-07-19T11:33:38;4.20;;;2.08;;
325;SDS011;150;52.352;14.058;2022-07-19T11:36:06;4.38;;;1.90;;
325;SDS011;150;52.352;14.058;2022-07-19T11:38:34;3.83;;;2.15;;
325;SDS011;150;52.352;14.058;2022-07-19T11:41:06;2.97;;;2.00;;
325;SDS011;150;52.352;14.058;2022-07-19T11:43:34;4.18;;;1.85;;
325;SDS011;150;52.352;14.058;2022-07-19T11:46:01;3.80;;;2.10;;
325;SDS011;150;52.352;14.058;2022-07-19T11:48:28;3.33;;;2.00;;
325;SDS011;150;52.352;14.058;2022-07-19T11:51:00;4.03;;;2.30;;
325;SDS011;150;52.352;14.058;2022-07-19T11:53:33;3.55;;;2.50;;
325;SDS011;150;52.352;14.058;2022-07-19T11:56:02;2.70;;;1.90;;
325;SDS011;150;52.352;14.058;2022-07-19T11:58:30;5.07;;;2.85;;
325;SDS011;150;52.352;14.058;2022-07-19T12:01:02;6.32;;;2.63;;
325;SDS011;150;52.352;14.058;2022-07-19T12:03:29;4.80;;;2.00;;
325;SDS011;150;52.352;14.058;2022-07-19T12:05:57;2.80;;;1.80;;
325;SDS011;150;52.352;14.058;2022-07-19T12:08:34;3.70;;;2.23;;
325;SDS011;150;52.352;14.058;2022-07-19T12:11:20;16.50;;;4.32;;
325;SDS011;150;52.352;14.058;2022-07-19T12:13:48;4.20;;;3.03;;
325;SDS011;150;52.352;14.058;2022-07-19T12:16:15;4.50;;;2.70;;
325;SDS011;150;52.352;14.058;2022-07-19T12:18:44;4.90;;;2.60;;
325;SDS011;150;52.352;14.058;2022-07-19T12:21:14;3.33;;;2.17;;
325;SDS011;150;52.352;14.058;2022-07-19T12:24:10;2.83;;;2.20;;
325;SDS011;150;52.352;14.058;2022-07-19T12:26:39;5.20;;;2.40;;
325;SDS011;150;52.352;14.058;2022-07-19T12:29:20;4.60;;;2.40;;
325;SDS011;150;52.352;14.058;2022-07-19T12:31:49;3.75;;;2.30;;
325;SDS011;150;52.352;14.058;2022-07-19T12:34:17;3.78;;;2.25;;
325;SDS011;150;52.352;14.058;2022-07-19T12:36:45;5.60;;;2.70;;
325;SDS011;150;52.352;14.058;2022-07-19T12:39:23;8.13;;;3.30;;
325;SDS011;150;52.352;14.058;2022-07-19T12:41:56;4.10;;;2.60;;
325;SDS011;150;52.352;14.058;2022-07-19T12:44:24;3.03;;;2.28;;
325;SDS011;150;52.352;14.058;2022-07-19T12:46:51;43.77;;;7.30;;
325;SDS011;150;52.352;14.058;2022-07-19T12:49:18;4.07;;;2.20;;
325;SDS011;150;52.352;14.058;2022-07-19T12:51:44;3.90;;;2.80;;
325;SDS011;150;52.352;14.058;2022-07-19T12:54:11;5.50;;;2.30;;
325;SDS011;150;52.352;14.058;2022-07-19T12:56:40;3.40;;;2.63;;
325;SDS011;150;52.352;14.058;2022-07-19T12:59:07;4.63;;;3.13;;
325;SDS011;150;52.352;14.058;2022-07-19T13:01:51;6.82;;;2.80;;
325;SDS011;150;52.352;14.058;2022-07-19T13:04:18;3.30;;;2.53;;
325;SDS011;150;52.352;14.058;2022-07-19T13:06:46;6.18;;;2.80;;
325;SDS011;150;52.352;14.058;2022-07-19T13:09:12;3.22;;;2.50;;
325;SDS011;150;52.352;14.058;2022-07-19T13:11:40;6.47;;;3.03;;
325;SDS011;150;52.352;14.058;2022-07-19T13:14:07;3.90;;;2.70;;
325;SDS011;150;52.352;14.058;2022-07-19T13:16:36;4.65;;;2.72;;
325;SDS011;150;52.352;14.058;2022-07-19T13:19:03;5.03;;;4.45;;
325;SDS011;150;52.352;14.058;2022-07-19T13:21:30;3.92;;;2.70;;
325;SDS011;150;52.352;14.058;2022-07-19T13:23:57;3.30;;;2.50;;
325;SDS011;150;52.352;14.058;2022-07-19T13:26:24;5.07;;;2.60;;
325;SDS011;150;52.352;14.058;2022-07-19T13:28:52;3.50;;;2.40;;
325;SDS011;150;52.352;14.058;2022-07-19T13:31:18;3.67;;;2.10;;
325;SDS011;150;52.352;14.058;2022-07-19T13:33:45;4.00;;;2.50;;
325;SDS011;150;52.352;14.058;2022-07-19T13:36:11;3.33;;;2.40;;
325;SDS011;150;52.352;14.058;2022-07-19T13:38:38;4.00;;;2.90;;
325;SDS011;150;52.352;14.058;2022-07-19T13:41:07;4.45;;;2.97;;
325;SDS011;150;52.352;14.058;2022-07-19T13:43:34;7.55;;;3.10;;
325;SDS011;150;52.352;14.058;2022-07-19T13:46:02;3.25;;;2.38;;
325;SDS011;150;52.352;14.058;2022-07-19T13:48:29;3.67;;;2.15;;
325;SDS011;150;52.352;14.058;2022-07-19T13:50:55;9.90;;;3.20;;
325;SDS011;150;52.352;14.058;2022-07-19T13:53:22;4.05;;;2.33;;
325;SDS011;150;52.352;14.058;2022-07-19T13:55:49;4.82;;;2.95;;
325;SDS011;150;52.352;14.058;2022-07-19T13:58:15;8.45;;;2.97;;
325;SDS011;150;52.352;14.058;2022-07-19T14:00:42;3.85;;;2.47;;
325;SDS011;150;52.352;14.058;2022-07-19T14:03:12;5.40;;;2.80;;
325;SDS011;150;52.352;14.058;2022-07-19T14:05:42;4.00;;;2.50;;
325;SDS011;150;52.352;14.058;2022-07-19T14:08:08;3.58;;;2.65;;
325;SDS011;150;52.352;14.058;2022-07-19T14:10:35;4.95;;;2.42;;
325;SDS011;150;52.352;14.058;2022-07-19T14:13:03;4.07;;;2.40;;
325;SDS011;150;52.352;14.058;2022-07-19T14:15:30;3.90;;;2.33;;
325;SDS011;150;52.352;14.058;2022-07-19T14:17:57;3.67;;;2.60;;
325;SDS011;150;52.352;14.058;2022-07-19T14:20:26;3.75;;;2.60;;
325;SDS011;150;52.352;14.058;2022-07-19T14:22:53;3.67;;;2.60;;
325;SDS011;150;52.352;14.058;2022-07-19T14:25:20;3.70;;;2.53;;
325;SDS011;150;52.352;14.058;2022-07-19T14:27:47;4.18;;;2.80;;
325;SDS011;150;52.352;14.058;2022-07-19T14:30:14;4.72;;;3.17;;
325;SDS011;150;52.352;14.058;2022-07-19T14:32:41;5.47;;;2.83;;
325;SDS011;150;52.352;14.058;2022-07-19T14:35:08;3.60;;;2.40;;
325;SDS011;150;52.352;14.058;2022-07-19T14:37:36;3.42;;;2.50;;
325;SDS011;150;52.352;14.058;2022-07-19T14:40:03;6.22;;;2.80;;
325;SDS011;150;52.352;14.058;2022-07-19T14:42:31;4.40;;;3.00;;
325;SDS011;150;52.352;14.058;2022-07-19T14:44:58;5.50;;;3.10;;
325;SDS011;150;52.352;14.058;2022-07-19T14:47:24;3.47;;;2.55;;
325;SDS011;150;52.352;14.058;2022-07-19T14:49:51;7.05;;;3.45;;
325;SDS011;150;52.352;14.058;2022-07-19T14:52:17;5.50;;;3.00;;
325;SDS011;150;52.352;14.058;2022-07-19T14:54:46;4.20;;;2.70;;
325;SDS011;150;52.352;14.058;2022-07-19T14:57:12;3.58;;;2.47;;
325;SDS011;150;52.352;14.058;2022-07-19T14:59:39;8.13;;;3.13;;
325;SDS011;150;52.352;14.058;2022-07-19T15:02:06;4.00;;;2.50;;
325;SDS011;150;52.352;14.058;2022-07-19T15:04:33;3.58;;;2.58;;
325;SDS011;150;52.352;14.058;2022-07-19T15:07:01;4.72;;;2.75;;
325;SDS011;150;52.352;14.058;2022-07-19T15:09:27;8.15;;;6.35;;
325;SDS011;150;52.352;14.058;2022-07-19T15:11:55;4.35;;;3.08;;
325;SDS011;150;52.352;14.058;2022-07-19T15:14:24;4.30;;;3.10;;
325;SDS011;150;52.352;14.058;2022-07-19T15:16:53;3.60;;;2.60;;
325;SDS011;150;52.352;14.058;2022-07-19T15:19:20;5.10;;;2.95;;
325;SDS011;150;52.352;14.058;2022-07-19T15:21:46;8.60;;;2.80;;
325;SDS011;150;52.352;14.058;2022-07-19T15:24:13;3.80;;;3.00;;
325;SDS011;150;52.352;14.058;2022-07-19T15:26:40;4.75;;;2.97;;
325;SDS011;150;52.352;14.058;2022-07-19T15:29:08;4.38;;;3.00;;
325;SDS011;150;52.352;14.058;2022-07-19T15:31:35;5.38;;;2.85;;
325;SDS011;150;52.352;14.058;2022-07-19T15:34:01;5.53;;;3.22;;
325;SDS011;150;52.352;14.058;2022-07-19T15:36:28;4.30;;;3.00;;
325;SDS011;150;52.352;14.058;2022-07-19T15:38:56;5.38;;;2.90;;
325;SDS011;150;52.352;14.058;2022-07-19T15:41:23;5.50;;;3.22;;
325;SDS011;150;52.352;14.058;2022-07-19T15:43:50;4.07;;;2.60;;
325;SDS011;150;52.352;14.058;2022-07-19T15:46:18;6.25;;;2.50;;
325;SDS011;150;52.352;14.058;2022-07-19T15:48:45;4.88;;;3.13;;